New Century — V7GF8 — position and weather

sailwx.info

Track history (hours):
 
Tides and Currents Weather Stations Pressure Air Temp Water Temp Dewpoint Dewpoint Depression Visibility Wind Speed Wind Dir Waves Ship Positions

New Century

Last reported at 2017-Jun-25 00:30 UTC. Time now 2017-Jul-22 02:52 UTC.
Position N 01°15' E 104°03'.
Warning: this ship's position is 27 days out of date.

Length 228 m; draft 13.1 m.

Type: Tanker. MMSI: 538002085.

Date/timePositionNaut miles runAvg speedWind from/ knotsBaromVisibWave heightAir tempDewpointWater temp
2017-Jun-25 00:30N 01°15' E 104°03'612.5
2017-Jun-25 00:00N 01°13' E 103°57'612.2
2017-Jun-24 23:29N 01°11' E 103°51'3 7.4
2017-Jun-24 23:00N 01°13' E 103°48'510.0
2017-Jun-24 22:30N 01°16' E 103°45'2 3.8
2017-Jun-24 22:01N 01°18' E 103°43'0 0.3
2017-Jun-24 21:30N 01°17' E 103°43'0 0.0
2017-Jun-24 21:00N 01°17' E 103°43'0 0.0
2017-Jun-24 20:30N 01°17' E 103°43'0 0.0
2017-Jun-24 20:00N 01°17' E 103°43'0 0.0
2017-Jun-24 19:30N 01°17' E 103°43'0 0.0
2017-Jun-24 19:00N 01°17' E 103°43'0 0.0
2017-Jun-24 18:30N 01°17' E 103°43'0 0.0
2017-Jun-24 18:00N 01°17' E 103°43'0 0.0
2017-Jun-24 17:30N 01°17' E 103°43'0 0.0
2017-Jun-24 17:00N 01°17' E 103°43'0 0.0
2017-Jun-24 16:30N 01°17' E 103°43'0 0.0
2017-Jun-24 16:00N 01°17' E 103°43'0 0.0
2017-Jun-24 15:30N 01°17' E 103°43'0 0.0
2017-Jun-24 14:57N 01°17' E 103°43'0 0.0
2017-Jun-24 14:00N 01°17' E 103°43'0 0.0
2017-Jun-24 13:30N 01°17' E 103°43'0 0.0
2017-Jun-24 13:00N 01°17' E 103°43'0 0.0
2017-Jun-24 12:30N 01°17' E 103°43'0 0.0
2017-Jun-24 12:00N 01°17' E 103°43'0 0.0
2017-Jun-24 11:30N 01°17' E 103°43'0 0.0
2017-Jun-24 11:00N 01°17' E 103°43'0 0.0
2017-Jun-24 10:30N 01°17' E 103°43'0 0.0
2017-Jun-24 10:00N 01°17' E 103°43'0 0.0
2017-Jun-24 09:30N 01°17' E 103°43'0 0.0
2017-Jun-24 09:00N 01°17' E 103°43'0 0.0
2017-Jun-24 08:24N 01°17' E 103°43'0 0.0
2017-Jun-24 08:00N 01°17' E 103°43'0 0.0
2017-Jun-24 07:30N 01°17' E 103°43'0 0.0
2017-Jun-24 07:00N 01°17' E 103°43'0 0.0
2017-Jun-24 06:30N 01°17' E 103°43'0 0.0
2017-Jun-24 05:57N 01°17' E 103°43'0 0.0
2017-Jun-24 05:30N 01°17' E 103°43'0 0.0
2017-Jun-24 05:00N 01°17' E 103°43'0 0.0
2017-Jun-24 04:30N 01°17' E 103°43'0 0.0
2017-Jun-24 04:00N 01°17' E 103°43'0 0.0
2017-Jun-24 03:30N 01°17' E 103°43'0 0.0
2017-Jun-24 03:00N 01°17' E 103°43'0 0.1
2017-Jun-24 02:30N 01°18' E 103°43'2 3.3
2017-Jun-24 02:00N 01°17' E 103°45'4 7.8
2017-Jun-24 01:30N 01°14' E 103°47'1 1.3
2017-Jun-24 00:47N 01°13' E 103°48'0 0.0
2017-Jun-24 00:26N 01°13' E 103°48'0 0.3
2017-Jun-23 23:56N 01°13' E 103°48'0 0.1
2017-Jun-23 23:29N 01°13' E 103°48'0 0.2
2017-Jun-23 22:56N 01°13' E 103°48'0 0.0
2017-Jun-23 22:29N 01°13' E 103°48'0 0.1
2017-Jun-23 21:56N 01°13' E 103°48'0 0.0
2017-Jun-23 21:29N 01°13' E 103°48'0 0.0
2017-Jun-23 20:53N 01°13' E 103°48'0 0.0
2017-Jun-23 20:29N 01°13' E 103°48'0 0.1
2017-Jun-23 19:53N 01°13' E 103°48'0 0.9
2017-Jun-23 19:30N 01°13' E 103°49'3 5.2
2017-Jun-23 19:00N 01°12' E 103°51'4 7.0
2017-Jun-23 18:30N 01°14' E 103°54'4 7.3
2017-Jun-23 18:00N 01°16' E 103°58'2 3.4
2017-Jun-23 17:30N 01°16' E 103°59'3 4.0
2017-Jun-23 16:45N 01°16' E 104°02'1 0.0
2017-Jun-21 19:38N 01°15' E 104°02'213.7
2017-Jun-21 19:28N 01°15' E 103°60'614.0
2017-Jun-21 19:01N 01°12' E 103°54'815.4
2017-Jun-21 18:30N 01°09' E 103°47'612.6
2017-Jun-21 18:00N 01°04' E 103°42'610.4
2017-Jun-21 17:25N 01°04' E 103°36'511.3
2017-Jun-21 16:59N 01°07' E 103°32'510.6
2017-Jun-21 16:29N 01°11' E 103°35'510.2
2017-Jun-21 16:00N 01°10' E 103°40'2 4.8
2017-Jun-21 15:30N 01°10' E 103°43'0 0.1
2017-Jun-21 15:00N 01°10' E 103°43'0 0.1
2017-Jun-21 14:30N 01°10' E 103°43'0 0.0
2017-Jun-21 13:27N 01°10' E 103°43'0 0.0
2017-Jun-21 13:00N 01°10' E 103°43'0 0.0
2017-Jun-21 12:30N 01°10' E 103°43'0 0.1
2017-Jun-21 12:00N 01°10' E 103°43'0 0.1
2017-Jun-21 11:21N 01°10' E 103°43'0 0.1
2017-Jun-21 10:51N 01°10' E 103°43'0 0.2
2017-Jun-21 10:30N 01°10' E 103°43'0 0.1
2017-Jun-21 10:00N 01°10' E 103°43'0 0.0
2017-Jun-21 09:30N 01°10' E 103°43'0 0.0
2017-Jun-21 08:48N 01°10' E 103°43'0 0.0
2017-Jun-21 08:27N 01°10' E 103°43'0 0.0
2017-Jun-21 07:57N 01°10' E 103°43'0 0.0
2017-Jun-21 07:27N 01°10' E 103°43'0 0.0
2017-Jun-21 07:00N 01°10' E 103°43'0 0.0
2017-Jun-21 06:27N 01°10' E 103°43'0 0.2
2017-Jun-21 05:53N 01°10' E 103°43'0 0.2
2017-Jun-21 05:26N 01°10' E 103°43'0 0.1
2017-Jun-21 05:00N 01°10' E 103°43'0 0.0
2017-Jun-21 04:29N 01°10' E 103°43'0 0.0
2017-Jun-21 04:00N 01°10' E 103°43'0 0.0
2017-Jun-21 03:29N 01°10' E 103°43'0 0.0
2017-Jun-21 02:56N 01°10' E 103°43'0 0.0
2017-Jun-21 02:20N 01°10' E 103°43'0 0.0
2017-Jun-21 01:56N 01°10' E 103°43'0 0.0
2017-Jun-21 01:29N 01°10' E 103°43'0 0.0
2017-Jun-21 00:56N 01°10' E 103°43'0 0.0
2017-Jun-21 00:29N 01°10' E 103°43'0 0.0
2017-Jun-20 23:50N 01°10' E 103°43'0 0.3
2017-Jun-20 23:29N 01°10' E 103°43'0 0.8
2017-Jun-20 23:00N 01°10' E 103°43'2 4.9
2017-Jun-20 22:30N 01°11' E 103°40'3 6.8
2017-Jun-20 22:00N 01°13' E 103°37'2 3.9
2017-Jun-20 21:30N 01°12' E 103°35'5 8.9
2017-Jun-20 20:58N 01°11' E 103°31'3 5.8
2017-Jun-20 20:29N 01°10' E 103°28'4 7.3
2017-Jun-20 19:53N 01°11' E 103°24'3 7.0
2017-Jun-20 19:27N 01°13' E 103°22'  
Track history (hours):
 
Tides and Currents Weather Stations Pressure Air Temp Water Temp Dewpoint Dewpoint Depression Visibility Wind Speed Wind Dir Waves Ship Positions

New Century

Last reported at 2017-Jun-25 00:30 UTC. Time now 2017-Jul-22 02:52 UTC.
Position N 01°15' E 104°03'.
Warning: this ship's position is 27 days out of date.

Length 228 m; draft 13.1 m.

Type: Tanker. MMSI: 538002085.

Date/timePositionNaut miles runAvg speedWind from/ knotsBaromVisibWave heightAir tempDewpointWater temp
2017-Jun-25 00:30N 01°15' E 104°03'612.5
2017-Jun-25 00:00N 01°13' E 103°57'612.2
2017-Jun-24 23:29N 01°11' E 103°51'3 7.4
2017-Jun-24 23:00N 01°13' E 103°48'510.0
2017-Jun-24 22:30N 01°16' E 103°45'2 3.8
2017-Jun-24 22:01N 01°18' E 103°43'0 0.3
2017-Jun-24 21:30N 01°17' E 103°43'0 0.0
2017-Jun-24 21:00N 01°17' E 103°43'0 0.0
2017-Jun-24 20:30N 01°17' E 103°43'0 0.0
2017-Jun-24 20:00N 01°17' E 103°43'0 0.0
2017-Jun-24 19:30N 01°17' E 103°43'0 0.0
2017-Jun-24 19:00N 01°17' E 103°43'0 0.0
2017-Jun-24 18:30N 01°17' E 103°43'0 0.0
2017-Jun-24 18:00N 01°17' E 103°43'0 0.0
2017-Jun-24 17:30N 01°17' E 103°43'0 0.0
2017-Jun-24 17:00N 01°17' E 103°43'0 0.0
2017-Jun-24 16:30N 01°17' E 103°43'0 0.0
2017-Jun-24 16:00N 01°17' E 103°43'0 0.0
2017-Jun-24 15:30N 01°17' E 103°43'0 0.0
2017-Jun-24 14:57N 01°17' E 103°43'0 0.0
2017-Jun-24 14:00N 01°17' E 103°43'0 0.0
2017-Jun-24 13:30N 01°17' E 103°43'0 0.0
2017-Jun-24 13:00N 01°17' E 103°43'0 0.0
2017-Jun-24 12:30N 01°17' E 103°43'0 0.0
2017-Jun-24 12:00N 01°17' E 103°43'0 0.0
2017-Jun-24 11:30N 01°17' E 103°43'0 0.0
2017-Jun-24 11:00N 01°17' E 103°43'0 0.0
2017-Jun-24 10:30N 01°17' E 103°43'0 0.0
2017-Jun-24 10:00N 01°17' E 103°43'0 0.0
2017-Jun-24 09:30N 01°17' E 103°43'0 0.0
2017-Jun-24 09:00N 01°17' E 103°43'0 0.0
2017-Jun-24 08:24N 01°17' E 103°43'0 0.0
2017-Jun-24 08:00N 01°17' E 103°43'0 0.0
2017-Jun-24 07:30N 01°17' E 103°43'0 0.0
2017-Jun-24 07:00N 01°17' E 103°43'0 0.0
2017-Jun-24 06:30N 01°17' E 103°43'0 0.0
2017-Jun-24 05:57N 01°17' E 103°43'0 0.0
2017-Jun-24 05:30N 01°17' E 103°43'0 0.0
2017-Jun-24 05:00N 01°17' E 103°43'0 0.0
2017-Jun-24 04:30N 01°17' E 103°43'0 0.0
2017-Jun-24 04:00N 01°17' E 103°43'0 0.0
2017-Jun-24 03:30N 01°17' E 103°43'0 0.0
2017-Jun-24 03:00N 01°17' E 103°43'0 0.1
2017-Jun-24 02:30N 01°18' E 103°43'2 3.3
2017-Jun-24 02:00N 01°17' E 103°45'4 7.8
2017-Jun-24 01:30N 01°14' E 103°47'1 1.3
2017-Jun-24 00:47N 01°13' E 103°48'0 0.0
2017-Jun-24 00:26N 01°13' E 103°48'0 0.3
2017-Jun-23 23:56N 01°13' E 103°48'0 0.1
2017-Jun-23 23:29N 01°13' E 103°48'0 0.2
2017-Jun-23 22:56N 01°13' E 103°48'0 0.0
2017-Jun-23 22:29N 01°13' E 103°48'0 0.1
2017-Jun-23 21:56N 01°13' E 103°48'0 0.0
2017-Jun-23 21:29N 01°13' E 103°48'0 0.0
2017-Jun-23 20:53N 01°13' E 103°48'0 0.0
2017-Jun-23 20:29N 01°13' E 103°48'0 0.1
2017-Jun-23 19:53N 01°13' E 103°48'0 0.9
2017-Jun-23 19:30N 01°13' E 103°49'3 5.2
2017-Jun-23 19:00N 01°12' E 103°51'4 7.0
2017-Jun-23 18:30N 01°14' E 103°54'4 7.3
2017-Jun-23 18:00N 01°16' E 103°58'2 3.4
2017-Jun-23 17:30N 01°16' E 103°59'3 4.0
2017-Jun-23 16:45N 01°16' E 104°02'1 0.0
2017-Jun-21 19:38N 01°15' E 104°02'213.7
2017-Jun-21 19:28N 01°15' E 103°60'614.0
2017-Jun-21 19:01N 01°12' E 103°54'815.4
2017-Jun-21 18:30N 01°09' E 103°47'612.6
2017-Jun-21 18:00N 01°04' E 103°42'610.4
2017-Jun-21 17:25N 01°04' E 103°36'511.3
2017-Jun-21 16:59N 01°07' E 103°32'510.6
2017-Jun-21 16:29N 01°11' E 103°35'510.2
2017-Jun-21 16:00N 01°10' E 103°40'2 4.8
2017-Jun-21 15:30N 01°10' E 103°43'0 0.1
2017-Jun-21 15:00N 01°10' E 103°43'0 0.1
2017-Jun-21 14:30N 01°10' E 103°43'0 0.0
2017-Jun-21 13:27N 01°10' E 103°43'0 0.0
2017-Jun-21 13:00N 01°10' E 103°43'0 0.0
2017-Jun-21 12:30N 01°10' E 103°43'0 0.1
2017-Jun-21 12:00N 01°10' E 103°43'0 0.1
2017-Jun-21 11:21N 01°10' E 103°43'0 0.1
2017-Jun-21 10:51N 01°10' E 103°43'0 0.2
2017-Jun-21 10:30N 01°10' E 103°43'0 0.1
2017-Jun-21 10:00N 01°10' E 103°43'0 0.0
2017-Jun-21 09:30N 01°10' E 103°43'0 0.0
2017-Jun-21 08:48N 01°10' E 103°43'0 0.0
2017-Jun-21 08:27N 01°10' E 103°43'0 0.0
2017-Jun-21 07:57N 01°10' E 103°43'0 0.0
2017-Jun-21 07:27N 01°10' E 103°43'0 0.0
2017-Jun-21 07:00N 01°10' E 103°43'0 0.0
2017-Jun-21 06:27N 01°10' E 103°43'0 0.2
2017-Jun-21 05:53N 01°10' E 103°43'0 0.2
2017-Jun-21 05:26N 01°10' E 103°43'0 0.1
2017-Jun-21 05:00N 01°10' E 103°43'0 0.0
2017-Jun-21 04:29N 01°10' E 103°43'0 0.0
2017-Jun-21 04:00N 01°10' E 103°43'0 0.0
2017-Jun-21 03:29N 01°10' E 103°43'0 0.0
2017-Jun-21 02:56N 01°10' E 103°43'0 0.0
2017-Jun-21 02:20N 01°10' E 103°43'0 0.0
2017-Jun-21 01:56N 01°10' E 103°43'0 0.0
2017-Jun-21 01:29N 01°10' E 103°43'0 0.0
2017-Jun-21 00:56N 01°10' E 103°43'0 0.0
2017-Jun-21 00:29N 01°10' E 103°43'0 0.0
2017-Jun-20 23:50N 01°10' E 103°43'0 0.3
2017-Jun-20 23:29N 01°10' E 103°43'0 0.8
2017-Jun-20 23:00N 01°10' E 103°43'2 4.9
2017-Jun-20 22:30N 01°11' E 103°40'3 6.8
2017-Jun-20 22:00N 01°13' E 103°37'2 3.9
2017-Jun-20 21:30N 01°12' E 103°35'5 8.9
2017-Jun-20 20:58N 01°11' E 103°31'3 5.8
2017-Jun-20 20:29N 01°10' E 103°28'4 7.3
2017-Jun-20 19:53N 01°11' E 103°24'3 7.0
2017-Jun-20 19:27N 01°13' E 103°22'  

Dump ship's entire track history